createdAt,value
2022-11-04T00:01:48.263Z,13.06
2022-11-04T00:04:17.622Z,13.11
2022-11-04T00:06:47.063Z,13.06
2022-11-04T00:09:19.458Z,13.10
2022-11-04T00:12:19.619Z,13.00
2022-11-04T00:14:47.164Z,12.93
2022-11-04T00:17:19.961Z,12.94
2022-11-04T00:20:14.383Z,12.94
2022-11-04T00:23:01.279Z,12.96
2022-11-04T00:25:51.974Z,12.83
2022-11-04T00:28:38.327Z,12.87
2022-11-04T00:31:21.776Z,12.84
2022-11-04T00:33:50.845Z,12.78
2022-11-04T00:36:18.929Z,12.82
2022-11-04T00:38:48.186Z,12.82
2022-11-04T00:41:28.159Z,12.74
2022-11-04T00:43:57.252Z,12.66
2022-11-04T00:46:25.360Z,12.62
2022-11-04T00:48:52.907Z,12.66
2022-11-04T00:51:21.558Z,12.57
2022-11-04T00:53:51.044Z,12.52
2022-11-04T00:56:18.633Z,12.53
2022-11-04T00:58:46.277Z,12.51
2022-11-04T01:01:17.981Z,12.53
2022-11-04T01:03:46.881Z,12.47
2022-11-04T01:06:14.478Z,12.37
2022-11-04T01:08:42.182Z,12.28
2022-11-04T01:11:12.128Z,12.27
2022-11-04T01:13:40.495Z,12.29
2022-11-04T01:16:10.251Z,12.23
2022-11-04T01:18:38.161Z,12.26
2022-11-04T01:21:07.599Z,12.12
2022-11-04T01:23:36.269Z,12.02
2022-11-04T01:26:06.277Z,12.00
2022-11-04T01:28:35.317Z,11.93
2022-11-04T01:31:07.304Z,11.82
2022-11-04T01:33:35.000Z,11.78
2022-11-04T01:36:02.970Z,11.82
2022-11-04T01:38:30.808Z,11.89
2022-11-04T01:40:58.784Z,11.86
2022-11-04T01:43:46.478Z,11.76
2022-11-04T01:46:22.783Z,11.69
2022-11-04T01:48:51.365Z,11.72
2022-11-04T01:51:19.312Z,11.79
2022-11-04T01:53:47.653Z,11.84
2022-11-04T01:56:17.379Z,11.84
2022-11-04T01:58:51.135Z,11.92
2022-11-04T02:01:19.738Z,11.93
2022-11-04T02:03:52.032Z,11.80
2022-11-04T02:06:22.236Z,11.79
2022-11-04T02:08:50.182Z,11.79
2022-11-04T02:11:31.888Z,11.88
2022-11-04T02:14:02.016Z,11.91
2022-11-04T02:16:40.128Z,11.97
2022-11-04T02:19:24.289Z,11.96
2022-11-04T02:22:22.526Z,11.99
2022-11-04T02:25:06.715Z,11.92
2022-11-04T02:27:46.191Z,11.96
2022-11-04T02:30:17.063Z,11.99
2022-11-04T02:33:20.163Z,11.89
2022-11-04T02:35:58.598Z,11.94
2022-11-04T02:38:33.870Z,11.96
2022-11-04T02:41:07.856Z,11.87
2022-11-04T02:43:43.296Z,11.86
2022-11-04T02:46:20.654Z,11.87
2022-11-04T02:48:53.720Z,11.90
2022-11-04T02:51:26.240Z,11.82
2022-11-04T02:54:02.735Z,11.80
2022-11-04T02:56:32.711Z,11.73
2022-11-04T02:59:06.180Z,11.73
2022-11-04T03:01:38.395Z,11.69
2022-11-04T03:04:09.963Z,11.70
2022-11-04T03:06:38.957Z,11.60
2022-11-04T03:09:07.268Z,11.50
2022-11-04T03:11:36.929Z,11.61
2022-11-04T03:14:08.259Z,11.67
2022-11-04T03:16:40.488Z,11.59
2022-11-04T03:19:16.066Z,11.76
2022-11-04T03:21:51.249Z,11.72
2022-11-04T03:24:19.015Z,11.77
2022-11-04T03:26:54.058Z,11.81
2022-11-04T03:29:27.248Z,11.90
2022-11-04T03:32:06.012Z,11.95
2022-11-04T03:34:34.147Z,11.93
2022-11-04T03:37:02.241Z,11.96
2022-11-04T03:39:29.864Z,12.00
2022-11-04T03:41:59.327Z,12.03
2022-11-04T03:44:27.893Z,12.03
2022-11-04T03:46:57.529Z,11.96
2022-11-04T03:49:26.067Z,11.93
2022-11-04T03:51:54.011Z,11.86
2022-11-04T03:54:22.084Z,11.76
2022-11-04T03:57:14.453Z,11.86
2022-11-04T04:00:02.615Z,11.81
2022-11-04T04:02:42.872Z,11.83
2022-11-04T04:05:17.775Z,11.84
2022-11-04T04:07:53.398Z,11.85
2022-11-04T04:10:40.487Z,11.87
2022-11-04T04:13:17.191Z,11.80
2022-11-04T04:15:49.567Z,11.82
2022-11-04T04:18:24.742Z,11.85
2022-11-04T04:20:55.736Z,11.82
2022-11-04T04:23:46.185Z,11.86
2022-11-04T04:26:33.404Z,11.98
2022-11-04T04:29:03.159Z,11.98
2022-11-04T04:31:52.288Z,11.98
2022-11-04T04:34:23.968Z,11.96
2022-11-04T04:36:58.393Z,12.00
2022-11-04T04:39:47.834Z,11.93
2022-11-04T04:42:33.318Z,11.83
2022-11-04T04:45:04.410Z,11.76
2022-11-04T04:47:40.138Z,11.82
2022-11-04T04:50:11.169Z,11.81
2022-11-04T04:52:40.926Z,11.78
2022-11-04T04:55:09.795Z,11.73
2022-11-04T04:57:37.389Z,11.68
2022-11-04T05:00:07.268Z,11.73
2022-11-04T05:02:34.940Z,11.81
2022-11-04T05:05:02.996Z,11.85
2022-11-04T05:07:32.124Z,11.86
2022-11-04T05:09:59.804Z,11.81
2022-11-04T05:12:47.357Z,11.73
2022-11-04T05:15:14.952Z,11.67
2022-11-04T05:17:42.642Z,11.57
2022-11-04T05:20:11.591Z,11.54
2022-11-04T05:22:40.775Z,11.55
2022-11-04T05:25:08.930Z,11.66
2022-11-04T05:27:36.565Z,11.61
2022-11-04T05:30:04.737Z,11.64
2022-11-04T05:32:32.392Z,11.64
2022-11-04T05:35:01.720Z,11.56
2022-11-04T05:37:29.573Z,11.53
2022-11-04T05:39:58.554Z,11.45
2022-11-04T05:42:26.154Z,11.52
2022-11-04T05:44:53.731Z,11.50
2022-11-04T05:47:21.352Z,11.36
2022-11-04T05:49:48.994Z,11.31
2022-11-04T05:52:16.561Z,11.27
2022-11-04T05:54:44.220Z,11.17
2022-11-04T05:57:13.178Z,11.09
2022-11-04T05:59:40.813Z,11.09
2022-11-04T06:02:08.647Z,11.04
2022-11-04T06:04:36.633Z,11.12
2022-11-04T06:07:04.278Z,11.05
2022-11-04T06:09:39.860Z,11.07
2022-11-04T06:12:09.643Z,10.85
2022-11-04T06:14:38.954Z,10.71
2022-11-04T06:17:06.607Z,10.53
2022-11-04T06:19:34.260Z,10.65
2022-11-04T06:22:03.523Z,10.60
2022-11-04T06:24:31.189Z,10.70
2022-11-04T06:26:58.787Z,10.68
2022-11-04T06:29:26.417Z,10.77
2022-11-04T06:31:55.444Z,10.81
2022-11-04T06:34:23.133Z,10.92
2022-11-04T06:36:50.980Z,10.97
2022-11-04T06:39:18.633Z,10.95
2022-11-04T06:41:50.438Z,10.99
2022-11-04T06:44:19.336Z,11.05
2022-11-04T06:46:47.009Z,10.92
2022-11-04T06:49:17.818Z,10.97
2022-11-04T06:51:45.754Z,10.99
2022-11-04T06:54:13.517Z,10.94
2022-11-04T06:56:41.653Z,10.98
2022-11-04T06:59:10.977Z,11.08
2022-11-04T07:01:38.658Z,11.04
2022-11-04T07:04:06.554Z,11.07
2022-11-04T07:06:38.379Z,11.00
2022-11-04T07:09:08.827Z,10.97
2022-11-04T07:11:36.368Z,11.00
2022-11-04T07:14:04.015Z,10.92
2022-11-04T07:16:31.748Z,10.98
2022-11-04T07:18:59.409Z,10.90
2022-11-04T07:21:27.355Z,10.98
2022-11-04T07:23:56.284Z,11.07
2022-11-04T07:26:24.121Z,11.00
2022-11-04T07:28:51.800Z,10.89
2022-11-04T07:31:27.417Z,10.80
2022-11-04T07:33:55.100Z,10.70
2022-11-04T07:36:22.744Z,10.60
2022-11-04T07:38:50.727Z,10.66
2022-11-04T07:41:19.936Z,10.78
2022-11-04T07:43:51.862Z,10.83
2022-11-04T07:46:20.924Z,10.88
2022-11-04T07:48:48.796Z,10.94
2022-11-04T07:51:19.028Z,11.01
2022-11-04T07:53:46.662Z,11.07
2022-11-04T07:56:14.801Z,11.09
2022-11-04T07:58:44.252Z,11.04
2022-11-04T08:01:14.514Z,11.01
2022-11-04T08:03:42.181Z,10.96
2022-11-04T08:06:11.872Z,10.98
2022-11-04T08:08:39.800Z,11.05
2022-11-04T08:11:14.226Z,11.11
2022-11-04T08:13:47.445Z,11.10
2022-11-04T08:16:17.425Z,11.16
2022-11-04T08:18:45.807Z,10.98
2022-11-04T08:21:14.128Z,10.93
2022-11-04T08:23:42.098Z,10.85
2022-11-04T08:26:11.195Z,10.85
2022-11-04T08:28:39.428Z,10.84
2022-11-04T08:31:11.282Z,10.85
2022-11-04T08:33:38.962Z,10.80
2022-11-04T08:36:09.235Z,10.80
2022-11-04T08:38:37.386Z,10.82
2022-11-04T08:41:07.356Z,10.88
2022-11-04T08:43:35.893Z,10.95
2022-11-04T08:46:04.988Z,10.96
2022-11-04T08:48:37.883Z,10.96
2022-11-04T08:51:07.263Z,10.91
2022-11-04T08:53:34.899Z,10.95
2022-11-04T08:56:10.584Z,10.92
2022-11-04T08:58:38.219Z,10.74
2022-11-04T09:01:06.768Z,10.90
2022-11-04T09:03:38.693Z,10.88
2022-11-04T09:06:07.174Z,10.96
2022-11-04T09:08:34.901Z,10.99
2022-11-04T09:11:02.498Z,11.06
2022-11-04T09:13:30.102Z,10.85
2022-11-04T09:15:57.813Z,10.80
2022-11-04T09:18:25.441Z,10.84
2022-11-04T09:20:54.354Z,10.88
2022-11-04T09:23:21.954Z,10.93
2022-11-04T09:25:49.532Z,10.85
2022-11-04T09:28:17.085Z,10.88
2022-11-04T09:30:44.746Z,10.78
2022-11-04T09:33:12.510Z,10.66
2022-11-04T09:35:40.144Z,10.61
2022-11-04T09:38:09.060Z,10.56
2022-11-04T09:40:38.443Z,10.51
2022-11-04T09:43:17.411Z,10.58
2022-11-04T09:45:45.546Z,10.73
2022-11-04T09:48:27.529Z,10.76
2022-11-04T09:50:58.847Z,10.78
2022-11-04T09:53:36.270Z,10.74
2022-11-04T09:56:09.809Z,10.70
2022-11-04T09:58:39.937Z,10.69
2022-11-04T10:01:21.783Z,10.32
2022-11-04T10:04:07.104Z,10.24
2022-11-04T10:06:46.857Z,10.24
2022-11-04T10:09:24.094Z,10.33
2022-11-04T10:12:07.753Z,10.27
2022-11-04T10:14:52.481Z,10.38
2022-11-04T10:17:34.437Z,10.51
2022-11-04T10:20:18.828Z,10.56
2022-11-04T10:22:59.147Z,10.68
2022-11-04T10:25:36.684Z,10.71
2022-11-04T10:28:04.752Z,10.75
2022-11-04T10:30:34.422Z,10.73
2022-11-04T10:33:10.834Z,10.80
2022-11-04T10:35:43.288Z,10.88
2022-11-04T10:38:20.693Z,10.96
2022-11-04T10:40:55.638Z,11.03
2022-11-04T10:43:32.859Z,11.06
2022-11-04T10:46:13.754Z,11.01
2022-11-04T10:48:50.355Z,11.06
2022-11-04T10:51:22.193Z,11.01
2022-11-04T10:53:55.851Z,11.02
2022-11-04T10:56:36.470Z,11.16
2022-11-04T10:59:20.645Z,11.18
2022-11-04T11:01:54.134Z,11.10
2022-11-04T11:04:30.942Z,11.08
2022-11-04T11:07:01.440Z,11.09
2022-11-04T11:09:30.887Z,11.10
2022-11-04T11:12:02.284Z,11.08
2022-11-04T11:14:35.899Z,11.13
2022-11-04T11:17:25.189Z,10.99
2022-11-04T11:19:59.011Z,10.92
2022-11-04T11:22:32.740Z,10.97
2022-11-04T11:25:28.130Z,11.01
2022-11-04T11:27:59.021Z,11.05
2022-11-04T11:30:31.846Z,11.07
2022-11-04T11:33:03.811Z,11.02
2022-11-04T11:35:41.245Z,11.03
2022-11-04T11:38:19.069Z,10.91
2022-11-04T11:41:10.846Z,10.96
2022-11-04T11:43:43.666Z,11.02
2022-11-04T11:46:12.311Z,11.07
2022-11-04T11:48:42.813Z,11.06
2022-11-04T11:51:13.589Z,11.07
2022-11-04T11:53:45.727Z,10.99
2022-11-04T11:56:25.791Z,11.02
2022-11-04T12:02:03.401Z,11.07
2022-11-04T12:10:49.301Z,11.06
2022-11-04T12:13:24.816Z,11.03
2022-11-04T12:16:19.197Z,10.97
2022-11-04T12:19:26.316Z,10.94
2022-11-04T12:22:01.145Z,10.89
2022-11-04T12:24:41.100Z,10.74
2022-11-04T12:27:19.199Z,10.59
2022-11-04T12:30:01.136Z,10.62
2022-11-04T12:32:42.200Z,10.75
2022-11-04T12:35:24.881Z,10.85
2022-11-04T12:38:05.077Z,10.79
2022-11-04T12:40:41.581Z,10.95
2022-11-04T12:43:24.559Z,11.07
2022-11-04T12:46:03.902Z,11.14
2022-11-04T12:48:55.919Z,11.16
2022-11-04T12:51:35.492Z,10.94
2022-11-04T12:54:32.933Z,10.73
2022-11-04T12:57:13.995Z,10.58
2022-11-04T12:59:59.308Z,10.56
2022-11-04T13:02:31.858Z,10.58
2022-11-04T13:05:07.012Z,10.54
2022-11-04T13:07:40.453Z,10.47
2022-11-04T13:10:18.574Z,10.25
2022-11-04T13:12:48.699Z,10.20
2022-11-04T13:15:20.111Z,10.27
2022-11-04T13:17:50.903Z,10.36
2022-11-04T13:20:28.659Z,10.35
2022-11-04T13:23:03.300Z,10.22
2022-11-04T13:25:35.436Z,10.27
2022-11-04T13:28:04.038Z,10.34
2022-11-04T13:30:41.157Z,10.43
2022-11-04T13:33:18.442Z,10.54
2022-11-04T13:35:57.615Z,10.58
2022-11-04T13:38:33.720Z,10.44
2022-11-04T13:41:23.654Z,10.30
2022-11-04T13:43:54.454Z,10.19
2022-11-04T13:46:30.388Z,10.24
2022-11-04T13:49:05.660Z,10.34
2022-11-04T13:51:44.430Z,10.39
2022-11-04T13:54:31.423Z,10.50
2022-11-04T13:57:06.981Z,10.60
2022-11-04T13:59:35.143Z,10.68
2022-11-04T14:02:40.533Z,10.60
2022-11-04T14:05:46.652Z,10.64
2022-11-04T14:08:17.147Z,10.63
2022-11-04T14:10:58.580Z,10.75
2022-11-04T14:13:44.179Z,10.70
2022-11-04T14:16:13.933Z,10.54
2022-11-04T14:18:42.983Z,10.50
2022-11-04T14:21:12.737Z,10.46
2022-11-04T14:23:46.061Z,10.47
2022-11-04T14:26:15.823Z,10.52
2022-11-04T14:28:46.529Z,10.59
2022-11-04T14:31:17.581Z,10.62
2022-11-04T14:33:54.093Z,10.60
2022-11-04T14:36:35.578Z,10.64
2022-11-04T14:39:08.715Z,10.71
2022-11-04T14:41:58.690Z,10.65
2022-11-04T14:44:36.333Z,10.63
2022-11-04T14:47:16.340Z,10.49
2022-11-04T14:49:47.094Z,10.41
2022-11-04T14:52:20.646Z,10.46
2022-11-04T14:54:51.695Z,10.41
2022-11-04T14:57:21.289Z,10.50
2022-11-04T14:59:49.863Z,10.52
2022-11-04T15:02:20.867Z,10.54
2022-11-04T15:04:53.180Z,10.54
2022-11-04T15:07:34.313Z,10.55
2022-11-04T15:10:18.680Z,10.56
2022-11-04T15:12:59.496Z,10.55
2022-11-04T15:15:48.657Z,10.33
2022-11-04T15:18:18.281Z,10.36
2022-11-04T15:20:49.179Z,10.40
2022-11-04T15:23:21.124Z,10.52
2022-11-04T15:25:50.901Z,10.54
2022-11-04T15:28:22.260Z,10.59
2022-11-04T15:31:02.182Z,10.64
2022-11-04T15:33:31.173Z,10.56
2022-11-04T15:35:59.716Z,10.56
2022-11-04T15:38:29.256Z,10.44
2022-11-04T15:41:20.615Z,10.28
2022-11-04T15:43:47.639Z,10.26
2022-11-04T15:46:19.985Z,10.29
2022-11-04T15:49:02.601Z,10.34
2022-11-04T15:51:32.261Z,10.37
2022-11-04T15:54:05.237Z,10.33
2022-11-04T15:56:40.696Z,10.35
2022-11-04T15:59:12.903Z,10.35
2022-11-04T16:01:46.932Z,10.32
2022-11-04T16:04:16.395Z,10.26
2022-11-04T16:06:47.857Z,10.23
2022-11-04T16:09:27.172Z,10.15
2022-11-04T16:12:15.040Z,10.21
2022-11-04T16:14:49.006Z,10.12
2022-11-04T16:17:16.776Z,10.18
2022-11-04T16:19:48.132Z,10.19
2022-11-04T16:22:22.164Z,10.23
2022-11-04T16:24:51.960Z,10.28
2022-11-04T16:27:23.119Z,10.43
2022-11-04T16:29:58.001Z,10.34
2022-11-04T16:32:28.700Z,10.24
2022-11-04T16:34:59.423Z,10.28
2022-11-04T16:37:27.425Z,10.38
2022-11-04T16:39:55.325Z,10.43
2022-11-04T16:42:24.807Z,10.41
2022-11-04T16:44:56.114Z,10.37
2022-11-04T16:47:25.845Z,10.39
2022-11-04T16:49:53.424Z,10.48
2022-11-04T16:52:26.444Z,10.42
2022-11-04T16:54:56.232Z,10.28
2022-11-04T16:57:26.370Z,10.29
2022-11-04T16:59:55.227Z,10.33
2022-11-04T17:02:27.846Z,10.36
2022-11-04T17:04:55.973Z,10.34
2022-11-04T17:07:35.167Z,10.33
2022-11-04T17:10:17.012Z,10.35
2022-11-04T17:12:46.233Z,10.35
2022-11-04T17:15:14.946Z,10.38
2022-11-04T17:17:42.583Z,10.39
2022-11-04T17:20:13.138Z,10.41
2022-11-04T17:22:41.216Z,10.22
2022-11-04T17:25:16.086Z,10.43
2022-11-04T17:27:44.361Z,10.47
2022-11-04T17:30:14.961Z,10.43
2022-11-04T17:32:42.971Z,10.42
2022-11-04T17:35:11.777Z,10.33
2022-11-04T17:37:39.416Z,10.27
2022-11-04T17:40:09.038Z,10.24
2022-11-04T17:42:54.308Z,10.32
2022-11-04T17:45:23.206Z,10.06
2022-11-04T17:47:50.908Z,10.08
2022-11-04T17:50:18.676Z,10.13
2022-11-04T17:52:49.117Z,10.14
2022-11-04T17:55:20.704Z,10.13
2022-11-04T17:57:51.091Z,10.23
2022-11-04T18:00:19.500Z,10.30
2022-11-04T18:02:48.606Z,10.34
2022-11-04T18:05:16.964Z,10.25
2022-11-04T18:07:44.545Z,10.28
2022-11-04T18:10:12.411Z,10.23
2022-11-04T18:12:41.176Z,10.22
2022-11-04T18:15:11.369Z,10.17
2022-11-04T18:17:39.689Z,10.17
2022-11-04T18:20:13.865Z,10.09
2022-11-04T18:22:42.453Z,10.05
2022-11-04T18:25:11.255Z,10.11
2022-11-04T18:27:39.014Z,10.15
2022-11-04T18:30:07.905Z,10.15
2022-11-04T18:32:35.680Z,10.15
2022-11-04T18:35:03.338Z,10.14
2022-11-04T18:37:33.197Z,10.19
2022-11-04T18:40:00.864Z,10.17
2022-11-04T18:42:28.467Z,10.01
2022-11-04T18:44:56.105Z,10.02
2022-11-04T18:47:24.118Z,9.94
2022-11-04T18:49:51.787Z,9.94
2022-11-04T18:52:19.391Z,9.91
2022-11-04T18:54:48.304Z,9.93
2022-11-04T18:57:15.931Z,9.97
2022-11-04T18:59:43.530Z,10.13
2022-11-04T19:02:18.840Z,10.15
2022-11-04T19:04:46.554Z,10.13
2022-11-04T19:07:14.764Z,10.26
2022-11-04T19:09:47.188Z,10.54
2022-11-04T19:12:34.590Z,10.44
2022-11-04T19:15:03.918Z,10.40
2022-11-04T19:17:31.531Z,10.37
2022-11-04T19:19:59.154Z,10.39
2022-11-04T19:22:26.862Z,10.48
2022-11-04T19:24:54.483Z,10.43
2022-11-04T19:27:24.915Z,10.49
2022-11-04T19:29:53.038Z,10.23
2022-11-04T19:32:20.907Z,10.18
2022-11-04T19:34:48.562Z,10.09
2022-11-04T19:37:16.701Z,9.97
2022-11-04T19:39:44.429Z,10.05
2022-11-04T19:42:30.562Z,10.05
2022-11-04T19:44:59.517Z,10.18
2022-11-04T19:47:27.114Z,10.28
2022-11-04T19:49:55.373Z,10.17
2022-11-04T19:52:22.997Z,10.17
2022-11-04T19:54:50.535Z,10.12
2022-11-04T19:57:18.089Z,10.08
2022-11-04T19:59:45.738Z,10.13
2022-11-04T20:02:16.004Z,10.03
2022-11-04T20:04:43.712Z,10.04
2022-11-04T20:07:11.312Z,10.04
2022-11-04T20:09:39.481Z,10.03
2022-11-04T20:12:25.097Z,9.94
2022-11-04T20:14:55.771Z,9.65
2022-11-04T20:17:25.201Z,9.57
2022-11-04T20:19:52.794Z,9.45
2022-11-04T20:22:20.386Z,9.42
2022-11-04T20:24:48.040Z,9.39
2022-11-04T20:27:15.618Z,9.45
2022-11-04T20:29:43.622Z,9.50
2022-11-04T20:32:11.207Z,9.49
2022-11-04T20:34:40.230Z,9.50
2022-11-04T20:37:07.975Z,9.48
2022-11-04T20:39:35.679Z,9.47
2022-11-04T20:42:03.347Z,9.50
2022-11-04T20:44:31.282Z,9.39
2022-11-04T20:46:59.163Z,9.36
2022-11-04T20:49:26.832Z,9.38
2022-11-04T20:51:55.908Z,9.29
2022-11-04T20:54:23.509Z,9.32
2022-11-04T20:56:51.175Z,9.21
2022-11-04T20:59:20.256Z,9.21
2022-11-04T21:01:50.197Z,9.28
2022-11-04T21:04:20.263Z,9.37
2022-11-04T21:06:49.112Z,9.38
2022-11-04T21:09:19.939Z,9.30
2022-11-04T21:11:48.024Z,9.29
2022-11-04T21:14:19.257Z,9.26
2022-11-04T21:16:47.032Z,9.16
2022-11-04T21:19:15.949Z,9.14
2022-11-04T21:21:44.548Z,8.96
2022-11-04T21:24:14.616Z,8.90
2022-11-04T21:26:44.780Z,8.92
2022-11-04T21:29:14.710Z,8.74
2022-11-04T21:31:43.219Z,8.72
2022-11-04T21:34:12.099Z,8.81
2022-11-04T21:36:40.053Z,8.86
2022-11-04T21:39:10.844Z,8.81
2022-11-04T21:41:38.811Z,8.72
2022-11-04T21:44:14.331Z,8.78
2022-11-04T21:46:42.413Z,8.83
2022-11-04T21:49:13.292Z,8.94
2022-11-04T21:51:41.002Z,9.05
2022-11-04T21:54:08.764Z,9.17
2022-11-04T21:56:36.720Z,9.23
2022-11-04T21:59:05.180Z,9.18
2022-11-04T22:01:34.315Z,9.28
2022-11-04T22:04:03.322Z,9.21
2022-11-04T22:06:35.318Z,9.20
2022-11-04T22:09:04.988Z,9.24
2022-11-04T22:11:33.678Z,9.38
2022-11-04T22:14:03.772Z,9.51
2022-11-04T22:16:33.436Z,9.50
2022-11-04T22:19:05.179Z,9.57
2022-11-04T22:21:33.637Z,9.66
2022-11-04T22:24:02.157Z,9.60
2022-11-04T22:26:31.492Z,9.54
2022-11-04T22:28:59.919Z,9.51
2022-11-04T22:31:29.572Z,9.53
2022-11-04T22:33:57.741Z,9.49
2022-11-04T22:36:26.974Z,9.49
2022-11-04T22:38:54.839Z,9.49
2022-11-04T22:41:23.861Z,9.50
2022-11-04T22:43:51.450Z,9.57
2022-11-04T22:46:22.084Z,9.43
2022-11-04T22:48:49.693Z,9.59
2022-11-04T22:51:17.605Z,9.59
2022-11-04T22:53:50.071Z,9.61
2022-11-04T22:56:20.304Z,9.64
2022-11-04T22:58:47.914Z,9.62
2022-11-04T23:01:16.788Z,9.62
2022-11-04T23:03:44.648Z,9.64
2022-11-04T23:06:12.269Z,9.58
2022-11-04T23:08:42.286Z,9.47
2022-11-04T23:11:36.610Z,9.43
2022-11-04T23:14:22.353Z,9.41
2022-11-04T23:17:09.765Z,9.35
2022-11-04T23:19:38.005Z,9.27
2022-11-04T23:22:23.200Z,9.31
2022-11-04T23:25:13.959Z,9.28
2022-11-04T23:28:03.027Z,9.33
2022-11-04T23:30:33.657Z,9.38
2022-11-04T23:33:02.784Z,9.45
2022-11-04T23:35:50.348Z,9.56
2022-11-04T23:38:18.461Z,9.51
2022-11-04T23:41:07.684Z,9.55
2022-11-04T23:43:36.079Z,9.54
2022-11-04T23:46:21.385Z,9.46
2022-11-04T23:49:21.335Z,9.48
2022-11-04T23:52:06.177Z,9.53
2022-11-04T23:54:51.475Z,9.66
2022-11-04T23:57:37.585Z,9.59
